createdAt,value
2022-08-04T00:00:26.728Z,19.70
2022-08-04T00:03:08.797Z,19.70
2022-08-04T00:05:46.180Z,19.60
2022-08-04T00:08:23.152Z,19.60
2022-08-04T00:10:55.905Z,19.60
2022-08-04T00:13:25.088Z,19.60
2022-08-04T00:15:58.592Z,19.50
2022-08-04T00:18:30.941Z,19.50
2022-08-04T00:21:01.770Z,19.40
2022-08-04T00:24:11.819Z,19.40
2022-08-04T00:26:19.645Z,19.30
2022-08-04T00:28:49.339Z,19.30
2022-08-04T00:31:19.889Z,19.20
2022-08-04T00:34:08.534Z,19.20
2022-08-04T00:36:36.690Z,19.20
2022-08-04T00:39:05.068Z,19.10
2022-08-04T00:41:56.594Z,19.10
2022-08-04T00:44:38.814Z,19.00
2022-08-04T00:47:28.922Z,18.90
2022-08-04T00:50:07.102Z,18.90
2022-08-04T00:52:45.699Z,18.80
2022-08-04T00:55:28.845Z,18.80
2022-08-04T00:58:16.542Z,18.70
2022-08-04T01:00:49.683Z,18.70
2022-08-04T01:03:38.522Z,18.60
2022-08-04T01:06:13.083Z,18.60
2022-08-04T01:08:55.539Z,18.50
2022-08-04T01:11:57.444Z,18.50
2022-08-04T02:16:54.518Z,17.40
2022-08-04T02:19:30.144Z,17.40
2022-08-04T02:22:08.057Z,17.40
2022-08-04T02:24:43.234Z,17.40
2022-08-04T02:27:13.849Z,17.30
2022-08-04T02:29:49.686Z,17.30
2022-08-04T02:32:26.466Z,17.20
2022-08-04T02:35:01.753Z,17.20
2022-08-04T02:37:33.333Z,17.10
2022-08-04T02:40:02.854Z,17.10
2022-08-04T02:42:31.857Z,17.00
2022-08-04T02:45:01.332Z,16.90
2022-08-04T02:48:23.612Z,16.90
2022-08-04T02:50:28.694Z,16.80
2022-08-04T02:52:59.637Z,16.80
2022-08-04T02:55:30.225Z,16.80
2022-08-04T02:57:59.941Z,16.70
2022-08-04T03:00:28.126Z,16.80
2022-08-04T03:03:07.511Z,16.70
2022-08-04T03:05:50.810Z,16.70
2022-08-04T03:09:13.837Z,16.70
2022-08-04T03:12:06.904Z,16.60
2022-08-04T03:15:07.794Z,16.60
2022-08-04T03:18:18.585Z,16.60
2022-08-04T03:21:25.144Z,16.60
2022-08-04T03:24:24.004Z,16.50
2022-08-04T03:27:29.301Z,16.50
2022-08-04T03:30:09.252Z,16.50
2022-08-04T03:33:10.987Z,16.50
2022-08-04T03:36:17.235Z,16.40
2022-08-04T03:39:23.995Z,16.40
2022-08-04T03:42:17.821Z,16.30
2022-08-04T03:45:25.155Z,16.20
2022-08-04T03:48:14.001Z,16.20
2022-08-04T03:51:35.351Z,16.20
2022-08-04T03:54:52.636Z,16.10
2022-08-04T03:58:09.376Z,16.00
2022-08-04T04:00:48.068Z,16.00
2022-08-04T04:03:49.445Z,16.00
2022-08-04T04:06:41.586Z,16.00
2022-08-04T04:09:53.880Z,16.00
2022-08-04T04:12:54.198Z,16.00
2022-08-04T04:15:37.809Z,16.00
2022-08-04T04:18:21.798Z,16.10
2022-08-04T04:21:01.575Z,16.10
2022-08-04T04:23:44.141Z,16.10
2022-08-04T04:26:33.962Z,16.20
2022-08-04T04:29:22.781Z,16.20
2022-08-04T04:32:04.352Z,16.20
2022-08-04T04:34:45.889Z,16.30
2022-08-04T04:37:22.769Z,16.40
2022-08-04T04:40:03.371Z,16.40
2022-08-04T04:42:46.831Z,16.50
2022-08-04T04:45:25.767Z,16.50
2022-08-04T04:48:08.408Z,16.60
2022-08-04T04:50:48.524Z,16.60
2022-08-04T04:53:25.249Z,16.70
2022-08-04T04:56:02.357Z,16.80
2022-08-04T04:58:34.445Z,16.90
2022-08-04T05:01:35.913Z,16.90
2022-08-04T05:04:25.170Z,17.00
2022-08-04T05:07:22.792Z,17.10
2022-08-04T05:10:04.790Z,17.20
2022-08-04T05:14:31.939Z,17.30
2022-08-04T05:15:45.039Z,17.30
2022-08-04T05:18:22.487Z,17.40
2022-08-04T05:20:56.360Z,17.50
2022-08-04T05:23:28.761Z,17.60
2022-08-04T05:26:00.879Z,17.70
2022-08-04T05:28:35.200Z,17.80
2022-08-04T05:31:07.579Z,17.90
2022-08-04T05:33:44.510Z,18.00
2022-08-04T05:36:32.674Z,18.10
2022-08-04T05:39:08.421Z,18.20
2022-08-04T05:41:45.731Z,18.30
2022-08-04T05:44:17.905Z,18.40
2022-08-04T05:46:54.324Z,18.50
2022-08-04T05:49:25.802Z,18.60
2022-08-04T05:51:56.430Z,18.70
2022-08-04T05:54:26.005Z,18.90
2022-08-04T05:56:56.046Z,19.00
2022-08-04T05:59:25.868Z,19.10
2022-08-04T06:01:57.908Z,19.20
2022-08-04T06:04:32.950Z,19.30
2022-08-04T06:07:01.052Z,19.50
2022-08-04T06:09:29.481Z,19.60
2022-08-04T06:12:03.859Z,19.70
2022-08-04T06:14:39.593Z,19.80
2022-08-04T06:18:32.270Z,20.00
2022-08-04T06:20:18.979Z,20.10
2022-08-04T06:22:54.863Z,20.30
2022-08-04T06:25:25.949Z,20.40
2022-08-04T06:27:55.874Z,20.50
2022-08-04T06:30:26.975Z,20.70
2022-08-04T06:33:03.799Z,20.80
2022-08-04T06:35:34.990Z,20.90
2022-08-04T06:38:04.326Z,21.10
2022-08-04T06:40:34.587Z,21.20
2022-08-04T06:43:04.593Z,21.40
2022-08-04T06:45:34.568Z,21.50
2022-08-04T06:48:04.438Z,21.70
2022-08-04T06:51:29.706Z,21.80
2022-08-04T06:53:23.927Z,21.90
2022-08-04T06:55:52.930Z,22.10
2022-08-04T06:58:22.923Z,22.30
2022-08-04T07:00:51.905Z,22.40
2022-08-04T07:03:21.669Z,22.60
2022-08-04T07:05:53.020Z,22.70
2022-08-04T07:08:21.825Z,22.80
2022-08-04T07:10:50.490Z,23.00
2022-08-04T07:13:19.656Z,23.30
2022-08-04T07:15:49.597Z,23.40
2022-08-04T07:18:18.139Z,23.50
2022-08-04T07:20:47.702Z,23.70
2022-08-04T07:23:19.810Z,23.80
2022-08-04T07:25:59.671Z,23.90
2022-08-04T07:28:41.838Z,24.10
2022-08-04T07:31:33.087Z,24.30
2022-08-04T07:34:16.823Z,24.40
2022-08-04T07:36:55.113Z,24.60
2022-08-04T07:39:29.343Z,24.80
2022-08-04T07:42:01.260Z,25.00
2022-08-04T07:44:30.958Z,25.10
2022-08-04T07:47:00.332Z,25.20
2022-08-04T07:49:54.660Z,25.40
2022-08-04T07:52:17.609Z,25.50
2022-08-04T07:54:47.582Z,25.80
2022-08-04T07:57:20.652Z,25.90
2022-08-04T08:00:06.827Z,26.00
2022-08-04T08:02:40.200Z,26.10
2022-08-04T08:05:11.320Z,26.20
2022-08-04T08:07:50.909Z,26.30
2022-08-04T08:10:24.867Z,26.40
2022-08-04T08:12:53.618Z,26.50
2022-08-04T08:15:23.255Z,26.60
2022-08-04T08:17:58.878Z,26.70
2022-08-04T08:20:30.483Z,26.80
2022-08-04T08:22:59.463Z,26.90
2022-08-04T08:25:30.656Z,27.00
2022-08-04T08:27:58.968Z,27.10
2022-08-04T08:30:31.820Z,27.30
2022-08-04T08:33:05.656Z,27.40
2022-08-04T08:35:49.929Z,27.60
2022-08-04T08:38:34.461Z,27.70
2022-08-04T08:41:29.608Z,27.70
2022-08-04T08:44:30.189Z,27.80
2022-08-04T08:47:17.471Z,27.90
2022-08-04T08:50:06.252Z,28.00
2022-08-04T08:53:01.261Z,28.10
2022-08-04T08:55:45.804Z,28.20
2022-08-04T08:58:46.051Z,28.40
2022-08-04T09:01:32.508Z,28.50
2022-08-04T09:04:34.089Z,28.70
2022-08-04T09:07:23.136Z,28.80
2022-08-04T09:10:03.692Z,28.90
2022-08-04T09:12:40.319Z,29.10
2022-08-04T09:15:34.420Z,29.10
2022-08-04T09:18:08.381Z,29.20
2022-08-04T09:20:48.355Z,29.20
2022-08-04T09:23:25.046Z,29.30
2022-08-04T09:26:01.262Z,29.40
2022-08-04T09:28:53.498Z,29.50
2022-08-04T09:31:30.169Z,29.50
2022-08-04T09:34:26.356Z,29.60
2022-08-04T09:37:04.432Z,29.70
2022-08-04T09:39:42.317Z,29.90
2022-08-04T09:42:20.004Z,30.10
2022-08-04T09:45:05.739Z,30.00
2022-08-04T09:47:42.840Z,30.20
2022-08-04T09:50:20.198Z,30.20
2022-08-04T09:52:57.374Z,30.10
2022-08-04T09:55:38.142Z,30.20
2022-08-04T09:58:37.173Z,30.30
2022-08-04T10:01:09.112Z,30.40
2022-08-04T10:03:42.624Z,30.60
2022-08-04T10:06:45.211Z,30.70
2022-08-04T10:09:34.213Z,30.80
2022-08-04T10:12:18.518Z,30.90
2022-08-04T10:14:54.040Z,31.00
2022-08-04T10:17:32.679Z,31.00
2022-08-04T10:20:09.637Z,31.10
2022-08-04T10:23:10.508Z,31.20
2022-08-04T10:26:07.224Z,31.30
2022-08-04T10:28:44.483Z,31.40
2022-08-04T10:31:19.189Z,31.50
2022-08-04T10:33:53.873Z,31.60
2022-08-04T10:36:28.666Z,31.60
2022-08-04T10:39:02.575Z,31.80
2022-08-04T10:41:38.922Z,31.80
2022-08-04T10:44:19.019Z,32.00
2022-08-04T10:46:52.377Z,32.00
2022-08-04T10:49:25.134Z,32.20
2022-08-04T10:52:00.519Z,32.10
2022-08-04T10:54:34.081Z,32.20
2022-08-04T10:57:07.812Z,32.30
2022-08-04T10:59:41.940Z,32.30
2022-08-04T11:02:23.708Z,32.30
2022-08-04T11:05:02.757Z,32.40
2022-08-04T11:07:36.004Z,32.50
2022-08-04T11:10:04.369Z,32.60
2022-08-04T11:12:34.760Z,32.70
2022-08-04T11:15:08.899Z,32.70
2022-08-04T11:17:39.645Z,32.80
2022-08-04T11:20:34.732Z,32.80
2022-08-04T11:23:10.174Z,32.90
2022-08-04T11:25:51.397Z,33.00
2022-08-04T11:28:26.696Z,33.00
2022-08-04T11:31:04.250Z,33.00
2022-08-04T11:33:39.104Z,33.10
2022-08-04T11:36:16.897Z,33.20
2022-08-04T11:38:52.559Z,33.30
2022-08-04T11:41:27.659Z,33.30
2022-08-04T11:44:03.240Z,33.40
2022-08-04T11:46:40.611Z,33.50
2022-08-04T11:49:16.263Z,33.60
2022-08-04T11:51:46.836Z,33.70
2022-08-04T11:54:16.972Z,33.80
2022-08-04T11:56:45.430Z,33.80
2022-08-04T11:59:13.567Z,33.90
2022-08-04T12:02:07.606Z,33.70
2022-08-04T12:04:48.425Z,33.70
2022-08-04T12:07:41.074Z,33.70
2022-08-04T12:10:41.578Z,33.70
2022-08-04T12:13:22.011Z,33.80
2022-08-04T12:16:03.490Z,34.00
2022-08-04T12:18:38.582Z,34.10
2022-08-04T12:21:12.150Z,34.20
2022-08-04T12:23:46.149Z,34.30
2022-08-04T12:26:24.382Z,34.30
2022-08-04T12:29:16.126Z,34.40
2022-08-04T12:31:49.364Z,34.50
2022-08-04T12:34:29.860Z,34.50
2022-08-04T12:37:04.142Z,34.50
2022-08-04T12:39:34.288Z,34.50
2022-08-04T12:42:08.994Z,34.50
2022-08-04T12:44:39.402Z,34.50
2022-08-04T12:47:26.376Z,34.60
2022-08-04T12:50:03.739Z,34.40
2022-08-04T12:53:01.518Z,34.40
2022-08-04T12:55:26.885Z,34.50
2022-08-04T12:57:58.013Z,34.70
2022-08-04T13:00:31.142Z,34.80
2022-08-04T13:03:05.557Z,35.00
2022-08-04T13:05:40.829Z,35.10
2022-08-04T13:08:10.578Z,35.20
2022-08-04T13:10:40.538Z,35.30
2022-08-04T13:13:17.303Z,35.40
2022-08-04T13:15:57.115Z,35.50
2022-08-04T13:18:30.040Z,35.60
2022-08-04T13:21:20.491Z,35.80
2022-08-04T13:24:10.976Z,35.80
2022-08-04T13:26:54.619Z,35.90
2022-08-04T13:29:59.006Z,35.90
2022-08-04T13:32:22.279Z,35.70
2022-08-04T13:34:53.439Z,35.70
2022-08-04T13:37:26.634Z,35.90
2022-08-04T13:39:56.800Z,36.00
2022-08-04T13:42:26.972Z,36.20
2022-08-04T13:44:59.635Z,36.50
2022-08-04T13:47:31.405Z,36.70
2022-08-04T13:50:20.823Z,37.00
2022-08-04T13:52:53.056Z,38.20
2022-08-04T13:55:23.736Z,40.00
2022-08-04T13:57:56.734Z,41.80
2022-08-04T14:00:29.252Z,43.70
2022-08-04T14:03:03.257Z,45.70
2022-08-04T14:05:58.818Z,47.50
2022-08-04T14:08:29.000Z,48.70
2022-08-04T14:10:59.855Z,50.10
2022-08-04T14:13:41.579Z,50.70
2022-08-04T14:16:19.856Z,51.20
2022-08-04T14:18:48.941Z,51.60
2022-08-04T14:21:18.889Z,52.20
2022-08-04T14:23:52.370Z,52.80
2022-08-04T14:26:33.339Z,53.20
2022-08-04T14:29:26.547Z,53.40
2022-08-04T14:32:05.375Z,53.70
2022-08-04T14:34:41.337Z,53.40
2022-08-04T14:37:16.568Z,53.60
2022-08-04T14:40:17.368Z,53.80
2022-08-04T14:42:43.943Z,54.00
2022-08-04T14:45:13.107Z,54.20
2022-08-04T14:47:52.606Z,54.20
2022-08-04T14:50:21.761Z,53.80
2022-08-04T14:52:49.837Z,53.20
2022-08-04T14:55:20.849Z,53.30
2022-08-04T14:58:35.211Z,53.60
2022-08-04T15:00:38.399Z,53.40
2022-08-04T15:03:09.610Z,53.40
2022-08-04T15:06:03.207Z,53.50
2022-08-04T15:08:31.358Z,53.60
2022-08-04T15:11:02.751Z,53.70
2022-08-04T15:13:32.142Z,53.90
2022-08-04T15:16:06.491Z,53.90
2022-08-04T15:18:38.768Z,53.50
2022-08-04T15:21:08.879Z,53.40
2022-08-04T15:23:39.608Z,53.30
2022-08-04T15:26:13.622Z,53.50
2022-08-04T15:28:57.600Z,53.40
2022-08-04T15:32:07.675Z,53.70
2022-08-04T15:34:16.157Z,53.90
2022-08-04T15:36:56.988Z,53.90
2022-08-04T15:39:36.939Z,53.80
2022-08-04T15:42:20.954Z,53.70
2022-08-04T15:46:41.701Z,53.50
2022-08-04T15:48:34.348Z,53.30
2022-08-04T15:51:15.183Z,53.30
2022-08-04T15:54:21.185Z,53.10
2022-08-04T15:57:01.346Z,53.10
2022-08-04T15:59:56.941Z,53.30
2022-08-04T16:02:41.018Z,53.30
2022-08-04T16:05:31.163Z,53.20
2022-08-04T16:08:04.575Z,52.70
2022-08-04T16:10:42.657Z,52.50
2022-08-04T16:13:14.422Z,52.60
2022-08-04T16:15:45.580Z,52.60
2022-08-04T16:18:26.159Z,52.70
2022-08-04T16:20:57.757Z,52.50
2022-08-04T16:23:55.086Z,52.40
2022-08-04T16:26:56.189Z,52.40
2022-08-04T16:29:34.145Z,52.30
2022-08-04T16:32:16.674Z,52.20
2022-08-04T16:34:55.119Z,52.10
2022-08-04T16:37:31.686Z,52.10
2022-08-04T16:40:31.680Z,51.90
2022-08-04T16:43:07.970Z,51.70
2022-08-04T16:45:46.619Z,51.60
2022-08-04T16:48:16.198Z,51.40
2022-08-04T16:50:57.125Z,51.30
2022-08-04T16:53:52.514Z,51.20
2022-08-04T16:56:19.010Z,50.90
2022-08-04T16:58:53.166Z,50.60
2022-08-04T17:01:34.064Z,50.40
2022-08-04T17:04:06.511Z,50.30
2022-08-04T17:06:36.176Z,50.20
2022-08-04T17:09:07.332Z,50.00
2022-08-04T17:11:36.768Z,49.70
2022-08-04T17:14:06.347Z,49.50
2022-08-04T17:16:36.791Z,49.10
2022-08-04T17:19:07.371Z,49.00
2022-08-04T17:21:49.591Z,48.80
2022-08-04T17:24:18.279Z,48.50
2022-08-04T17:26:54.153Z,48.20
2022-08-04T17:29:43.481Z,48.00
2022-08-04T17:32:17.149Z,47.70
2022-08-04T17:34:49.327Z,47.30
2022-08-04T17:37:37.977Z,46.60
2022-08-04T17:40:11.981Z,46.30
2022-08-04T17:42:45.008Z,46.20
2022-08-04T17:45:49.307Z,45.80
2022-08-04T17:48:09.887Z,45.50
2022-08-04T17:50:43.122Z,45.30
2022-08-04T17:53:13.181Z,44.90
2022-08-04T17:55:43.586Z,44.20
2022-08-04T17:58:22.135Z,44.30
2022-08-04T18:01:22.639Z,43.80
2022-08-04T18:03:52.785Z,43.40
2022-08-04T18:06:23.097Z,42.80
2022-08-04T18:08:58.962Z,42.00
2022-08-04T18:11:53.546Z,41.10
2022-08-04T18:14:25.875Z,40.20
2022-08-04T18:16:57.308Z,39.20
2022-08-04T18:19:25.484Z,38.10
2022-08-04T18:22:00.062Z,37.40
2022-08-04T18:24:35.113Z,36.60
2022-08-04T18:27:20.154Z,36.00
2022-08-04T18:30:15.180Z,35.30
2022-08-04T18:32:51.295Z,34.70
2022-08-04T18:36:29.716Z,34.20
2022-08-04T18:38:23.798Z,33.80
2022-08-04T18:40:53.230Z,33.30
2022-08-04T18:43:28.199Z,33.00
2022-08-04T18:46:00.270Z,32.60
2022-08-04T18:48:36.179Z,32.20
2022-08-04T18:51:10.878Z,31.80
2022-08-04T18:53:54.923Z,31.50
2022-08-04T18:56:29.504Z,31.10
2022-08-04T18:59:00.331Z,30.80
2022-08-04T19:02:13.700Z,30.50
2022-08-04T19:04:33.504Z,30.20
2022-08-04T19:07:33.693Z,30.00
2022-08-04T19:09:57.765Z,29.70
2022-08-04T19:12:28.154Z,29.40
2022-08-04T19:15:09.089Z,29.20
2022-08-04T19:17:53.139Z,29.00
2022-08-04T19:20:26.008Z,28.70
2022-08-04T19:24:27.717Z,28.40
2022-08-04T19:26:02.894Z,28.10
2022-08-04T19:28:34.049Z,27.90
2022-08-04T19:31:02.756Z,27.70
2022-08-04T19:33:58.814Z,27.50
2022-08-04T19:36:21.163Z,27.20
2022-08-04T19:38:57.122Z,27.10
2022-08-04T19:41:26.659Z,26.90
2022-08-04T19:43:55.268Z,26.70
2022-08-04T19:46:25.623Z,26.50
2022-08-04T19:48:59.656Z,26.40
2022-08-04T19:51:30.044Z,26.30
2022-08-04T19:54:02.886Z,26.20
2022-08-04T19:56:40.448Z,26.00
2022-08-04T19:59:10.161Z,25.90
2022-08-04T20:01:44.730Z,25.70
2022-08-04T20:04:15.548Z,25.50
2022-08-04T20:06:44.205Z,25.40
2022-08-04T20:12:00.394Z,25.30
2022-08-04T20:14:32.654Z,25.30
2022-08-04T20:17:02.852Z,25.20
2022-08-04T20:19:32.270Z,25.20
2022-08-04T20:22:02.909Z,25.10
2022-08-04T20:24:41.515Z,25.00
2022-08-04T20:27:21.742Z,25.00
2022-08-04T20:29:55.639Z,24.80
2022-08-04T20:32:25.300Z,24.80
2022-08-04T20:34:56.719Z,24.60
2022-08-04T20:37:56.711Z,24.60
2022-08-04T20:40:15.240Z,24.50
2022-08-04T20:42:44.981Z,24.50
2022-08-04T20:45:16.627Z,24.40
2022-08-04T20:47:46.027Z,24.30
2022-08-04T20:53:16.723Z,24.10
2022-08-04T20:55:54.758Z,24.00
2022-08-04T21:01:12.552Z,23.90
2022-08-04T21:04:00.976Z,23.90
2022-08-04T21:06:30.719Z,23.80
2022-08-04T21:08:58.786Z,23.80
2022-08-04T21:11:32.821Z,23.80
2022-08-04T21:14:01.388Z,23.70
2022-08-04T21:16:55.226Z,23.70
2022-08-04T21:19:17.675Z,23.60
2022-08-04T21:21:53.272Z,23.50
2022-08-04T21:24:26.214Z,23.40
2022-08-04T21:26:56.959Z,23.30
2022-08-04T21:29:29.634Z,23.20
2022-08-04T21:32:06.009Z,23.20
2022-08-04T21:34:38.941Z,23.00
2022-08-04T21:37:11.432Z,23.00
2022-08-04T21:39:50.496Z,22.90
2022-08-04T21:42:29.501Z,22.80
2022-08-04T21:44:59.094Z,22.70
2022-08-04T21:47:46.049Z,22.60
2022-08-04T21:50:19.681Z,22.50
2022-08-04T21:52:50.167Z,22.50
2022-08-04T21:55:19.075Z,22.40
2022-08-04T21:57:49.485Z,22.40
2022-08-04T22:03:23.351Z,22.40
2022-08-04T22:05:56.267Z,22.30
2022-08-04T22:08:29.557Z,22.20
2022-08-04T22:10:57.956Z,22.20
2022-08-04T22:13:52.681Z,22.10
2022-08-04T22:16:14.593Z,22.00
2022-08-04T22:18:42.781Z,21.90
2022-08-04T22:21:13.182Z,21.90
2022-08-04T22:23:45.469Z,21.90
2022-08-04T22:26:20.159Z,21.90
2022-08-04T22:28:56.203Z,21.80
2022-08-04T22:31:24.975Z,21.80
2022-08-04T22:33:56.115Z,21.80
2022-08-04T22:36:24.967Z,21.90
2022-08-04T22:39:04.332Z,21.80
2022-08-04T22:41:48.637Z,21.70
2022-08-04T22:44:17.815Z,21.70
2022-08-04T22:46:48.871Z,21.60
2022-08-04T22:49:16.941Z,21.60
2022-08-04T22:51:50.801Z,21.50
2022-08-04T22:54:20.874Z,21.40
2022-08-04T22:56:54.127Z,21.40
2022-08-04T22:59:22.243Z,21.30
2022-08-04T23:01:59.584Z,21.20
2022-08-04T23:04:31.103Z,21.10
2022-08-04T23:06:59.846Z,21.00
2022-08-04T23:09:50.555Z,20.90
2022-08-04T23:12:27.176Z,20.90
2022-08-04T23:14:56.846Z,20.80
2022-08-04T23:17:25.765Z,20.80
2022-08-04T23:19:57.676Z,20.80
2022-08-04T23:22:42.235Z,20.80
2022-08-04T23:25:15.148Z,20.70
2022-08-04T23:27:48.120Z,20.70
2022-08-04T23:30:21.732Z,20.70
2022-08-04T23:32:53.998Z,20.60
2022-08-04T23:35:22.720Z,20.60
2022-08-04T23:37:57.798Z,20.60
2022-08-04T23:40:34.363Z,20.50
2022-08-04T23:43:12.317Z,20.50
2022-08-04T23:46:07.234Z,20.50
2022-08-04T23:48:34.686Z,20.50
2022-08-04T23:51:14.358Z,20.40
2022-08-04T23:54:02.134Z,20.40
2022-08-04T23:56:34.294Z,20.40
2022-08-04T23:59:03.791Z,20.40
